createdAt,value
2017-11-24T19:48:51.405Z,95.89
2017-11-24T19:49:17.531Z,95.89
2017-11-24T19:49:43.647Z,95.7
2017-11-24T19:50:09.784Z,95.32
2017-11-24T19:50:35.912Z,94.93
2017-11-24T19:51:02.026Z,95.32
2017-11-24T19:58:51.829Z,95.89
2017-11-24T20:03:08.937Z,96.84
2017-11-24T20:03:35.063Z,96.55
2017-11-24T20:04:01.187Z,96.36
2017-11-24T20:04:27.312Z,96.84
2017-11-24T20:04:53.456Z,96.55
2017-11-24T20:05:19.571Z,96.65
2017-11-24T20:05:45.696Z,96.08
2017-11-24T20:06:11.809Z,96.08
2017-11-24T20:06:37.959Z,96.36
2017-11-24T20:07:04.091Z,96.46
2017-11-24T20:07:30.208Z,96.46
2017-11-24T20:07:56.355Z,95.98
2017-11-24T20:08:22.469Z,95.7
2017-11-24T20:08:48.593Z,95.79
2017-11-24T20:09:14.715Z,96.46
2017-11-24T20:09:40.833Z,95.98
2017-11-24T20:10:06.958Z,95.89
2017-11-24T20:10:33.073Z,96.08
2017-11-24T20:10:59.196Z,96.08
2017-11-24T20:11:25.314Z,95.22
2017-11-24T20:11:51.443Z,95.51
2017-11-24T20:12:17.576Z,95.41
2017-11-24T20:12:43.692Z,95.03
2017-11-24T20:13:09.818Z,95.51
2017-11-24T20:13:35.940Z,95.51
2017-11-24T20:14:02.095Z,95.51
2017-11-24T20:14:28.203Z,95.12
2017-11-24T20:14:54.329Z,95.22
2017-11-24T20:15:20.451Z,95.03
2017-11-24T20:15:46.570Z,95.51
2017-11-24T20:16:12.704Z,95.41
2017-11-24T20:16:38.829Z,96.46
2017-11-24T20:17:04.944Z,96.36
2017-11-24T20:17:31.071Z,96.08
2017-11-24T20:17:57.194Z,96.26
2017-11-24T20:18:23.309Z,96.36
2017-11-24T20:18:49.436Z,97.22
2017-11-24T20:19:15.553Z,97.22
2017-11-24T20:19:41.677Z,97.03
2017-11-24T20:20:07.800Z,95.89
2017-11-24T20:20:33.914Z,95.89
2017-11-24T20:21:00.060Z,95.56
2017-11-24T20:21:26.190Z,95.46
2017-11-24T20:21:52.317Z,95.12
2017-11-24T20:22:18.442Z,94.98
2017-11-24T20:22:44.572Z,94.98
2017-11-24T20:23:10.700Z,94.7
2017-11-24T20:23:36.828Z,94.6
2017-11-24T20:24:02.951Z,94.46
2017-11-24T20:24:29.069Z,94.37
2017-11-24T20:24:55.194Z,94.93
2017-11-24T20:25:21.314Z,94.84
2017-11-24T20:25:47.459Z,94.93
2017-11-24T20:26:13.570Z,95.51
2017-11-24T20:26:39.689Z,95.7
2017-11-24T20:27:06.306Z,95.7
2017-11-24T20:27:34.709Z,95.6
2017-11-24T20:28:00.796Z,95.51
2017-11-24T20:28:26.923Z,95.41
2017-11-24T20:28:53.063Z,95.7
2017-11-24T20:29:19.187Z,95.22
2017-11-24T20:29:45.309Z,95.51
2017-11-24T20:30:11.428Z,95.41
2017-11-24T20:30:37.577Z,95.51
2017-11-24T20:31:03.696Z,95.51
2017-11-24T20:31:29.813Z,95.6
2017-11-24T20:31:55.941Z,95.22
2017-11-24T20:32:22.064Z,95.41
2017-11-24T20:32:48.190Z,95.27
2017-11-24T20:33:14.336Z,95.22
2017-11-24T20:33:40.441Z,94.93
2017-11-24T20:34:06.561Z,94.93
2017-11-24T20:34:32.680Z,95.12
2017-11-24T20:34:58.809Z,95.22
2017-11-24T20:35:24.932Z,95.03
2017-11-24T20:35:51.054Z,95.03
2017-11-24T20:36:17.167Z,95.03
2017-11-24T20:36:43.290Z,95.03
2017-11-24T20:37:09.406Z,95.03
2017-11-24T20:37:35.552Z,95.03
2017-11-24T20:38:01.872Z,95.41
2017-11-24T20:38:27.991Z,95.89
2017-11-24T20:38:54.114Z,95.7
2017-11-24T20:39:20.231Z,95.6
2017-11-24T20:39:46.372Z,95.41
2017-11-24T20:40:12.511Z,95.7
2017-11-24T20:40:38.628Z,95.51
2017-11-24T20:41:04.754Z,95.79
2017-11-24T20:41:30.877Z,95.6
2017-11-24T20:41:56.994Z,95.6
2017-11-24T20:42:23.116Z,95.7
2017-11-24T20:42:49.241Z,95.51
2017-11-24T20:43:15.367Z,95.03
2017-11-24T20:43:41.544Z,95.7
2017-11-24T20:44:07.652Z,95.6
2017-11-24T20:44:33.792Z,95.7
2017-11-24T20:44:59.897Z,95.51
2017-11-24T20:45:26.021Z,95.41
2017-11-24T20:45:52.140Z,95.12
2017-11-24T20:46:18.268Z,95.51
2017-11-24T20:46:44.397Z,95.41
2017-11-24T20:47:10.540Z,95.7
2017-11-24T20:47:36.661Z,95.7
2017-11-24T20:48:02.784Z,95.41
2017-11-24T20:48:28.898Z,95.51
2017-11-24T20:48:55.022Z,95.6
2017-11-24T20:49:21.142Z,95.7
2017-11-24T20:49:47.280Z,95.41
2017-11-24T20:50:13.404Z,95.51
2017-11-24T20:50:39.526Z,94.93
2017-11-24T20:51:05.668Z,95.51
2017-11-24T20:51:31.788Z,95.51
2017-11-24T20:51:57.913Z,95.7
2017-11-24T20:52:24.034Z,95.03
2017-11-24T20:52:50.152Z,95.03
2017-11-24T20:53:16.272Z,94.93
2017-11-24T20:53:42.394Z,94.93
2017-11-24T20:54:08.521Z,95.12
2017-11-24T20:54:34.646Z,94.89
2017-11-24T20:55:00.783Z,94.98
2017-11-24T20:55:26.885Z,94.6
2017-11-24T20:55:53.005Z,94.51
2017-11-24T20:56:19.122Z,94.03
2017-11-24T20:56:45.241Z,94.42
2017-11-24T20:57:11.381Z,94.13
2017-11-24T20:57:37.523Z,94.08
2017-11-24T20:58:03.647Z,94.22
2017-11-24T20:58:29.773Z,94.42
2017-11-24T20:58:55.917Z,94.03
2017-11-24T20:59:22.032Z,94.13
2017-11-24T20:59:48.163Z,94.03
2017-11-24T21:00:14.301Z,94.13
2017-11-24T21:00:40.418Z,94.13
2017-11-24T21:01:06.544Z,94.22
2017-11-24T21:01:32.671Z,93.7
2017-11-24T21:01:59.043Z,93.89
2017-11-24T21:02:25.159Z,93.89
2017-11-24T21:02:51.288Z,94.18
2017-11-24T21:03:17.442Z,94.27
2017-11-24T21:03:43.570Z,94.74
2017-11-24T21:04:09.696Z,94.37
2017-11-24T21:04:35.818Z,94.93
2017-11-24T21:05:01.940Z,95.12
2017-11-24T21:05:28.074Z,95.03
2017-11-24T21:05:54.183Z,95.22
2017-11-24T21:06:20.298Z,95.12
2017-11-24T21:06:46.421Z,94.93
2017-11-24T21:07:12.567Z,94.74
2017-11-24T21:07:38.680Z,94.65
2017-11-24T21:08:04.806Z,94.37
2017-11-24T21:08:30.930Z,93.89
2017-11-24T21:08:57.060Z,94.37
2017-11-24T21:09:23.205Z,94.18
2017-11-24T21:09:49.323Z,94.27
2017-11-24T21:10:15.459Z,94.65
2017-11-24T21:10:41.578Z,94.74
2017-11-24T21:11:07.706Z,95.12
2017-11-24T21:11:33.833Z,95.12
2017-11-24T21:11:59.948Z,95.12
2017-11-24T21:12:26.075Z,94.56
2017-11-24T21:12:52.193Z,94.37
2017-11-24T21:13:18.314Z,94.56
2017-11-24T21:13:44.454Z,94.84
2017-11-24T21:14:10.564Z,94.65
2017-11-24T21:14:36.679Z,94.37
2017-11-24T21:15:02.797Z,94.6
2017-11-24T21:15:28.926Z,94.42
2017-11-24T21:15:55.069Z,94.74
2017-11-24T21:16:21.192Z,94.74
2017-11-24T21:16:47.310Z,94.37
2017-11-24T21:17:13.438Z,94.46
2017-11-24T21:17:39.554Z,94.46
2017-11-24T21:18:05.691Z,94.7
2017-11-24T21:18:31.826Z,94.37
2017-11-24T21:18:57.938Z,94.6
2017-11-24T21:19:24.133Z,94.79
2017-11-24T21:19:50.229Z,94.6
2017-11-24T21:20:16.348Z,94.03
2017-11-24T21:20:42.468Z,93.94
2017-11-24T21:21:08.617Z,94.32
2017-11-24T21:21:34.734Z,94.51
2017-11-24T21:22:00.863Z,93.94
2017-11-24T21:22:26.982Z,93.84
2017-11-24T21:22:53.099Z,93.55
2017-11-24T21:23:19.241Z,94.03
2017-11-24T21:23:45.360Z,93.46
2017-11-24T21:24:11.485Z,93.46
2017-11-24T21:24:37.601Z,93.55
2017-11-24T21:25:03.725Z,93.46
2017-11-24T21:25:29.850Z,93.27
2017-11-24T21:25:55.971Z,93.55
2017-11-24T21:26:22.095Z,93.18
2017-11-24T21:26:48.234Z,92.79
2017-11-24T21:27:14.351Z,92.99
2017-11-24T21:27:40.470Z,92.99
2017-11-24T21:28:06.613Z,93.65
2017-11-24T21:28:32.741Z,93.37
2017-11-24T21:28:58.852Z,93.46
2017-11-24T21:29:24.971Z,93.37
2017-11-24T21:29:51.102Z,93.55
2017-11-24T21:30:17.214Z,93.37
2017-11-24T21:30:43.364Z,92.7
2017-11-24T21:31:09.485Z,92.99
2017-11-24T21:31:35.605Z,93.46
2017-11-24T21:32:01.733Z,93.08
2017-11-24T21:32:27.847Z,93.65
2017-11-24T21:32:53.968Z,93.46
2017-11-24T21:33:20.093Z,93.65
2017-11-24T21:33:46.224Z,93.37
2017-11-24T21:34:12.344Z,92.99
2017-11-24T21:34:38.470Z,93.27
2017-11-24T21:35:04.591Z,93.18
2017-11-24T21:35:30.754Z,93.18
2017-11-24T21:35:56.875Z,92.7
2017-11-24T21:36:22.998Z,92.32
2017-11-24T21:36:49.126Z,92.7
2017-11-24T21:37:15.247Z,92.79
2017-11-24T21:37:41.363Z,92.41
2017-11-24T21:38:07.482Z,92.41
2017-11-24T21:38:33.606Z,92.51
2017-11-24T21:38:59.730Z,92.7
2017-11-24T21:39:25.864Z,92.41
2017-11-24T21:39:51.979Z,93.27
2017-11-24T21:40:18.103Z,93.08
2017-11-24T21:40:44.218Z,93.27
2017-11-24T21:41:10.364Z,93.27
2017-11-24T21:41:36.480Z,92.51
2017-11-24T21:42:02.947Z,92.89
2017-11-24T21:42:29.072Z,92.89
2017-11-24T21:42:55.193Z,92.79
2017-11-24T21:43:21.315Z,92.99
2017-11-24T21:43:47.441Z,92.89
2017-11-24T21:44:13.586Z,92.89
2017-11-24T21:44:39.702Z,92.7
2017-11-24T21:45:05.830Z,92.89
2017-11-24T21:45:31.947Z,92.6
2017-11-24T21:45:58.065Z,92.79
2017-11-24T21:46:24.184Z,92.7
2017-11-24T21:46:50.318Z,92.99
2017-11-24T21:47:16.434Z,92.99
2017-11-24T21:47:42.554Z,92.7
2017-11-24T21:48:08.674Z,93.08
2017-11-24T21:48:34.791Z,92.79
2017-11-24T21:49:00.923Z,92.99
2017-11-24T21:49:27.047Z,92.7
2017-11-24T21:49:53.170Z,93.08
2017-11-24T21:50:19.296Z,93.18
2017-11-24T21:50:45.431Z,92.79
2017-11-24T21:51:11.555Z,92.79
2017-11-24T21:51:37.671Z,93.08
2017-11-24T21:52:03.793Z,92.7
2017-11-24T21:52:29.916Z,92.99
2017-11-24T21:52:56.046Z,93.18
2017-11-24T21:53:22.153Z,92.99
2017-11-24T21:53:48.277Z,92.51
2017-11-24T21:54:14.396Z,92.41
2017-11-24T21:54:40.514Z,93.27
2017-11-24T21:55:06.639Z,92.41
2017-11-24T21:55:32.775Z,93.27
2017-11-24T21:55:58.902Z,92.99
2017-11-24T21:56:25.026Z,93.08
2017-11-24T21:56:51.146Z,92.89
2017-11-24T21:57:17.277Z,92.41
2017-11-24T21:57:43.399Z,93.08
2017-11-24T21:58:09.521Z,93.08
2017-11-24T21:58:35.638Z,93.84
2017-11-24T21:59:01.765Z,94.03
2017-11-24T21:59:27.887Z,94.22
2017-11-24T21:59:54.004Z,94.32
2017-11-24T22:00:20.130Z,94.13
2017-11-24T22:00:46.255Z,94.13
2017-11-24T22:01:12.372Z,94.13
2017-11-24T22:01:38.518Z,94.32
2017-11-24T22:02:04.853Z,94.13
2017-11-24T22:02:30.976Z,94.32
2017-11-24T22:02:57.097Z,94.03
2017-11-24T22:03:23.221Z,93.84
2017-11-24T22:03:49.355Z,93.65
2017-11-24T22:04:15.481Z,93.65
2017-11-24T22:04:41.617Z,93.55
2017-11-24T22:05:07.735Z,93.74
2017-11-24T22:05:33.990Z,93.46
2017-11-24T22:06:00.108Z,93.65
2017-11-24T22:06:26.236Z,93.46
2017-11-24T22:06:52.374Z,92.79
2017-11-24T22:07:18.482Z,93.08
2017-11-24T22:07:44.610Z,93.18
2017-11-24T22:08:10.727Z,93.18
2017-11-24T22:08:37.014Z,92.84
2017-11-24T22:09:03.137Z,93.03
2017-11-24T22:09:29.255Z,92.74
2017-11-24T22:09:55.408Z,92.99
2017-11-24T22:10:21.500Z,93.03
2017-11-24T22:10:47.626Z,92.94
2017-11-24T22:11:13.753Z,92.65
2017-11-24T22:11:39.897Z,92.84
2017-11-24T22:12:06.012Z,92.46
2017-11-24T22:12:32.139Z,92.18
2017-11-24T22:12:58.252Z,91.99
2017-11-24T22:13:24.376Z,92.18
2017-11-24T22:13:50.492Z,92.27
2017-11-24T22:14:16.646Z,92.36
2017-11-24T22:14:42.770Z,92.08
2017-11-24T22:15:08.885Z,91.89
2017-11-24T22:15:35.026Z,91.89
2017-11-24T22:16:01.155Z,91.99
2017-11-24T22:16:27.277Z,91.6
2017-11-24T22:16:53.438Z,91.7
2017-11-24T22:17:19.587Z,91.6
2017-11-24T22:17:45.706Z,91.89
2017-11-24T22:18:11.828Z,92.08
2017-11-24T22:18:37.987Z,91.89
2017-11-24T22:19:04.107Z,91.99
2017-11-24T22:19:30.233Z,91.79
2017-11-24T22:19:56.357Z,91.89
2017-11-24T22:20:22.474Z,91.79
2017-11-24T22:20:48.649Z,91.41
2017-11-24T22:21:14.750Z,90.84
2017-11-24T22:21:40.875Z,91.03
2017-11-24T22:22:06.991Z,91.41
2017-11-24T22:22:33.119Z,91.41
2017-11-24T22:22:59.235Z,91.51
2017-11-24T22:23:25.354Z,91.13
2017-11-24T22:23:51.480Z,90.75
2017-11-24T22:24:17.600Z,91.13
2017-11-24T22:24:43.727Z,90.65
2017-11-24T22:25:09.868Z,91.13
2017-11-24T22:25:36.015Z,90.84
2017-11-24T22:26:02.131Z,90.94
2017-11-24T22:26:28.258Z,90.94
2017-11-24T22:26:54.383Z,90.84
2017-11-24T22:27:20.498Z,90.27
2017-11-24T22:27:46.624Z,90.36
2017-11-24T22:28:12.742Z,90.27
2017-11-24T22:28:38.867Z,89.98
2017-11-24T22:29:04.992Z,89.79
2017-11-24T22:29:31.110Z,90.08
2017-11-24T22:29:57.238Z,90.08
2017-11-24T22:30:23.357Z,90.08
2017-11-24T22:30:49.477Z,89.98
2017-11-24T22:31:15.597Z,89.89
2017-11-24T22:31:41.717Z,90.08
2017-11-24T22:32:07.881Z,89.98
2017-11-24T22:32:34.011Z,89.61
2017-11-24T22:33:00.128Z,89.41
2017-11-24T22:33:26.247Z,89.51
2017-11-24T22:33:52.365Z,89.51
2017-11-24T22:34:18.506Z,89.51
2017-11-24T22:34:44.626Z,89.7
2017-11-24T22:35:10.747Z,89.7
2017-11-24T22:35:36.874Z,89.61
2017-11-24T22:36:02.996Z,89.41
2017-11-24T22:36:29.115Z,89.7
2017-11-24T22:36:55.231Z,88.84
2017-11-24T22:37:21.377Z,89.13
2017-11-24T22:37:47.505Z,89.22
2017-11-24T22:38:13.626Z,89.13
2017-11-24T22:38:40.301Z,89.61
2017-11-24T22:39:07.604Z,89.26
2017-11-24T22:39:33.699Z,89.51
2017-11-24T22:39:59.788Z,89.41
2017-11-24T22:40:25.913Z,89.55
2017-11-24T22:40:52.035Z,89.51
2017-11-24T22:41:18.180Z,89.51
2017-11-24T22:41:44.303Z,89.51
2017-11-24T22:42:10.416Z,89.51
2017-11-24T22:42:36.540Z,89.61
2017-11-24T22:43:02.665Z,90.08
2017-11-24T22:43:28.939Z,90.17
2017-11-24T22:43:54.991Z,90.17
2017-11-24T22:44:21.111Z,89.98
2017-11-24T22:44:47.229Z,90.75
2017-11-24T22:45:13.356Z,90.94
2017-11-24T22:45:39.491Z,90.75
2017-11-24T22:46:05.614Z,90.84
2017-11-24T22:46:31.729Z,90.56
2017-11-24T22:46:57.895Z,90.84
2017-11-24T22:47:23.973Z,90.65
2017-11-24T22:47:50.108Z,91.22
2017-11-24T22:48:16.236Z,90.84
2017-11-24T22:48:42.353Z,91.22
2017-11-24T22:49:08.478Z,91.13
2017-11-24T22:49:34.603Z,91.31
2017-11-24T22:50:00.748Z,91.51
2017-11-24T22:50:26.867Z,90.94
2017-11-24T22:50:53.013Z,90.84
2017-11-24T22:51:19.129Z,91.31
2017-11-24T22:51:45.249Z,90.84
2017-11-24T22:52:11.392Z,90.94
2017-11-24T22:52:37.497Z,90.75
2017-11-24T22:53:03.635Z,90.94
2017-11-24T22:53:29.758Z,91.13
2017-11-24T22:53:55.877Z,91.03
2017-11-24T22:54:22.028Z,91.13
2017-11-24T22:54:48.159Z,90.84
2017-11-24T22:55:14.269Z,90.65
2017-11-24T22:55:40.396Z,90.65
2017-11-24T22:56:06.516Z,90.65
2017-11-24T22:56:32.638Z,91.51
2017-11-24T22:56:58.763Z,90.89
2017-11-24T22:57:24.902Z,90.99
2017-11-24T22:57:51.047Z,91.37
2017-11-24T22:58:17.166Z,92.03
2017-11-24T22:58:43.278Z,91.46
2017-11-24T22:59:09.428Z,91.84
2017-11-24T22:59:35.551Z,92.51
2017-11-24T23:00:01.699Z,92.22
2017-11-24T23:00:28.051Z,92.41
2017-11-24T23:00:54.198Z,92.51
2017-11-24T23:01:20.326Z,92.7
2017-11-24T23:01:46.444Z,92.51
2017-11-24T23:02:12.560Z,92.22
2017-11-24T23:02:38.677Z,92.41
2017-11-24T23:03:04.805Z,92.41
2017-11-24T23:03:30.921Z,92.22
2017-11-24T23:03:57.056Z,92.51
2017-11-24T23:04:23.173Z,92.22
2017-11-24T23:04:49.334Z,92.51
2017-11-24T23:05:15.519Z,91.94
2017-11-24T23:05:41.638Z,92.03
2017-11-24T23:06:07.785Z,92.51
2017-11-24T23:06:33.907Z,92.32
2017-11-24T23:07:00.033Z,92.41
2017-11-24T23:07:26.145Z,92.7
2017-11-24T23:07:52.265Z,92.22
2017-11-24T23:08:18.389Z,92.89
2017-11-24T23:08:44.506Z,92.13
2017-11-24T23:09:10.631Z,93.18
2017-11-24T23:09:36.757Z,92.89
2017-11-24T23:10:02.874Z,92.99
2017-11-24T23:10:29.001Z,92.99
2017-11-24T23:10:55.125Z,92.79
2017-11-24T23:11:21.243Z,92.89
2017-11-24T23:11:47.386Z,92.99
2017-11-24T23:12:13.503Z,92.6
2017-11-24T23:12:39.653Z,92.41
2017-11-24T23:13:05.767Z,92.89
2017-11-24T23:13:31.893Z,92.6
2017-11-24T23:13:58.040Z,92.32
2017-11-24T23:14:24.157Z,92.6
2017-11-24T23:14:50.274Z,92.32
2017-11-24T23:15:16.428Z,92.32
2017-11-24T23:15:42.550Z,92.51
2017-11-24T23:16:08.669Z,92.13
2017-11-24T23:16:34.781Z,92.32
2017-11-24T23:17:00.902Z,92.7
2017-11-24T23:17:27.033Z,92.51
2017-11-24T23:17:53.149Z,92.32
2017-11-24T23:18:19.294Z,92.22
2017-11-24T23:18:45.410Z,92.79
2017-11-24T23:19:11.554Z,92.13
2017-11-24T23:19:37.681Z,92.32
2017-11-24T23:20:03.798Z,92.03
2017-11-24T23:20:29.917Z,92.13
2017-11-24T23:20:56.038Z,92.03
2017-11-24T23:21:22.154Z,92.36
2017-11-24T23:21:48.283Z,91.94
2017-11-24T23:22:14.398Z,92.22
2017-11-24T23:22:40.518Z,92.32
2017-11-24T23:23:06.644Z,91.84
2017-11-24T23:23:32.763Z,91.75
2017-11-24T23:23:58.881Z,92.32
2017-11-24T23:24:25.005Z,91.84
2017-11-24T23:24:51.124Z,92.03
2017-11-24T23:25:17.243Z,92.03
2017-11-24T23:25:43.369Z,92.22
2017-11-24T23:26:09.488Z,92.32
2017-11-24T23:26:35.628Z,92.03
2017-11-24T23:27:01.796Z,91.94
2017-11-24T23:27:27.921Z,92.32
2017-11-24T23:27:54.071Z,92.03
2017-11-24T23:28:20.217Z,92.27
2017-11-24T23:28:46.340Z,92.27
2017-11-24T23:29:12.456Z,92.03
2017-11-24T23:29:38.582Z,91.89
2017-11-24T23:30:04.699Z,92.08
2017-11-24T23:30:30.824Z,91.6
2017-11-24T23:30:56.966Z,91.56
2017-11-24T23:31:23.115Z,91.41
2017-11-24T23:31:49.232Z,91.6
2017-11-24T23:32:15.352Z,91.84
2017-11-24T23:32:41.484Z,91.84
2017-11-24T23:33:07.606Z,91.46
2017-11-24T23:33:33.722Z,91.65
2017-11-24T23:33:59.874Z,91.75
2017-11-24T23:34:25.994Z,91.84
2017-11-24T23:34:52.117Z,91.84
2017-11-24T23:35:18.232Z,92.03
2017-11-24T23:35:44.362Z,91.94
2017-11-24T23:36:10.477Z,92.03
2017-11-24T23:36:36.613Z,92.32
2017-11-24T23:37:02.730Z,92.41
2017-11-24T23:37:28.856Z,92.13
2017-11-24T23:37:54.979Z,91.84
2017-11-24T23:38:21.113Z,92.03
2017-11-24T23:38:47.248Z,91.84
2017-11-24T23:39:13.344Z,91.84
2017-11-24T23:39:39.472Z,91.56
2017-11-24T23:40:05.608Z,91.46
2017-11-24T23:40:31.726Z,92.03
2017-11-24T23:40:57.851Z,91.94
2017-11-24T23:41:23.965Z,91.84
2017-11-24T23:41:50.102Z,91.84
2017-11-24T23:42:16.235Z,91.84
2017-11-24T23:42:42.358Z,91.94
2017-11-24T23:43:08.531Z,92.13
2017-11-24T23:43:34.665Z,92.32
2017-11-24T23:44:00.786Z,92.03
2017-11-24T23:44:26.908Z,92.03
2017-11-24T23:44:53.032Z,91.84
2017-11-24T23:45:19.155Z,91.84
2017-11-24T23:45:45.308Z,91.84
2017-11-24T23:46:11.421Z,91.84
2017-11-24T23:46:37.545Z,92.03
2017-11-24T23:47:03.673Z,91.94
2017-11-24T23:47:29.796Z,92.13
2017-11-24T23:47:55.918Z,91.94
2017-11-24T23:48:22.041Z,91.84
2017-11-24T23:48:48.165Z,91.65
2017-11-24T23:49:14.282Z,91.75
2017-11-24T23:49:40.408Z,91.65
2017-11-24T23:50:06.533Z,91.84
2017-11-24T23:50:32.654Z,91.65
2017-11-24T23:50:58.795Z,91.65
2017-11-24T23:51:24.914Z,91.75
2017-11-24T23:51:51.040Z,91.37
2017-11-24T23:52:17.162Z,91.46
2017-11-24T23:52:43.279Z,91.56
2017-11-24T23:53:09.408Z,91.84
2017-11-24T23:53:35.525Z,91.94
2017-11-24T23:54:01.646Z,92.22
2017-11-24T23:54:27.769Z,92.03
2017-11-24T23:54:53.892Z,92.03
2017-11-24T23:55:20.016Z,92.03
2017-11-24T23:55:46.134Z,91.17
2017-11-24T23:56:12.260Z,91.46
2017-11-24T23:56:38.375Z,91.56
2017-11-24T23:57:04.502Z,91.84
2017-11-24T23:57:30.620Z,91.84
2017-11-24T23:57:56.748Z,91.99
2017-11-24T23:58:23.082Z,92.36
2017-11-24T23:58:49.136Z,92.84
2017-11-24T23:59:15.313Z,93.04
2017-11-24T23:59:41.438Z,92.75
